createdAt,value
2022-10-25T00:01:44.799Z,61854.13
2022-10-25T00:04:47.948Z,61854.13
2022-10-25T00:07:50.428Z,61854.13
2022-10-25T00:10:52.906Z,61854.13
2022-10-25T00:13:58.054Z,61854.13
2022-10-25T00:17:02.021Z,61854.13
2022-10-25T00:20:06.608Z,61854.13
2022-10-25T00:23:09.077Z,61854.13
2022-10-25T00:26:12.846Z,61854.13
2022-10-25T00:29:15.403Z,61854.13
2022-10-25T00:32:19.518Z,61854.13
2022-10-25T00:35:22.007Z,61854.13
2022-10-25T00:38:24.623Z,61854.13
2022-10-25T00:41:29.435Z,61854.13
2022-10-25T00:44:55.845Z,61854.13
2022-10-25T00:48:04.438Z,61854.13
2022-10-25T00:51:07.125Z,61854.13
2022-10-25T00:54:12.554Z,61854.13
2022-10-25T00:57:18.419Z,61854.13
2022-10-25T01:00:21.120Z,61854.13
2022-10-25T01:03:25.500Z,61854.13
2022-10-25T01:06:32.881Z,61854.13
2022-10-25T01:09:37.727Z,61854.13
2022-10-25T01:12:40.238Z,61854.13
2022-10-25T01:15:52.483Z,61854.13
2022-10-25T01:19:03.074Z,61854.13
2022-10-25T01:22:09.781Z,61854.13
2022-10-25T01:25:40.394Z,61854.13
2022-10-25T01:29:06.416Z,61854.13
2022-10-25T01:32:14.311Z,61854.13
2022-10-25T01:35:25.823Z,61854.13
2022-10-25T01:38:37.781Z,61854.13
2022-10-25T01:41:45.780Z,61854.13
2022-10-25T01:44:58.779Z,61854.13
2022-10-25T01:48:09.017Z,61854.13
2022-10-25T01:51:13.287Z,61854.13
2022-10-25T01:54:21.301Z,61854.13
2022-10-25T01:57:53.051Z,61854.13
2022-10-25T02:01:03.510Z,61854.13
2022-10-25T02:04:12.449Z,61854.13
2022-10-25T02:07:24.374Z,61854.13
2022-10-25T02:10:30.290Z,61854.13
2022-10-25T02:13:40.125Z,61854.13
2022-10-25T02:16:47.535Z,61854.13
2022-10-25T02:19:53.897Z,61854.13
2022-10-25T02:22:58.498Z,61854.13
2022-10-25T02:26:02.507Z,61854.13
2022-10-25T02:29:07.799Z,61854.13
2022-10-25T02:32:10.292Z,61854.13
2022-10-25T02:35:16.436Z,61854.13
2022-10-25T02:38:18.923Z,61854.13
2022-10-25T02:41:22.606Z,61854.13
2022-10-25T02:44:25.069Z,61854.13
2022-10-25T02:47:27.525Z,61854.13
2022-10-25T02:50:31.309Z,61854.13
2022-10-25T02:53:34.816Z,61854.13
2022-10-25T02:56:37.431Z,61854.13
2022-10-25T02:59:39.912Z,61854.13
2022-10-25T03:02:42.383Z,61854.13
2022-10-25T03:05:46.648Z,61854.13
2022-10-25T03:08:49.217Z,61854.13
2022-10-25T03:11:51.693Z,61854.13
2022-10-25T03:14:54.134Z,61854.13
2022-10-25T03:17:56.587Z,61854.13
2022-10-25T03:21:02.466Z,61854.13
2022-10-25T03:24:05.952Z,61854.13
2022-10-25T03:27:08.436Z,61854.13
2022-10-25T03:30:13.171Z,61854.13
2022-10-25T03:33:15.718Z,61854.13
2022-10-25T03:36:19.502Z,61854.13
2022-10-25T03:39:21.938Z,61854.13
2022-10-25T03:42:24.528Z,61854.13
2022-10-25T03:45:27.240Z,61854.13
2022-10-25T03:48:29.748Z,61854.13
2022-10-25T03:51:33.564Z,61854.13
2022-10-25T03:54:36.250Z,61854.13
2022-10-25T03:57:38.759Z,61854.13
2022-10-25T04:00:41.278Z,61854.13
2022-10-25T04:03:45.262Z,61854.13
2022-10-25T04:06:49.073Z,61854.13
2022-10-25T04:09:51.509Z,61854.13
2022-10-25T04:12:55.045Z,61854.13
2022-10-25T04:15:57.811Z,61854.13
2022-10-25T04:19:00.261Z,61854.13
2022-10-25T04:22:04.758Z,61854.13
2022-10-25T04:25:07.913Z,61854.13
2022-10-25T04:28:10.380Z,61854.13
2022-10-25T04:31:12.821Z,61854.13
2022-10-25T04:34:15.268Z,61854.13
2022-10-25T04:37:19.060Z,61854.13
2022-10-25T04:40:24.033Z,61854.13
2022-10-25T04:43:28.890Z,61854.13
2022-10-25T04:46:31.411Z,61854.13
2022-10-25T04:49:33.867Z,61854.13
2022-10-25T04:52:37.690Z,61854.13
2022-10-25T04:55:40.543Z,61854.13
2022-10-25T04:58:43.140Z,61854.13
2022-10-25T05:01:45.766Z,61854.13
2022-10-25T05:04:48.359Z,61854.13
2022-10-25T05:07:52.471Z,61854.13
2022-10-25T05:10:55.736Z,61854.13
2022-10-25T05:13:58.190Z,61854.13
2022-10-25T05:17:01.002Z,61854.13
2022-10-25T05:20:04.095Z,61854.13
2022-10-25T05:23:07.870Z,61854.13
2022-10-25T05:26:12.454Z,61854.13
2022-10-25T05:29:14.977Z,61854.13
2022-10-25T05:32:17.482Z,61854.13
2022-10-25T05:35:19.943Z,61854.13
2022-10-25T05:38:23.761Z,61854.13
2022-10-25T05:41:29.735Z,61854.13
2022-10-25T05:44:34.490Z,61854.13
2022-10-25T05:47:36.959Z,61854.13
2022-10-25T06:52:58.661Z,100248.66
2022-10-25T06:56:04.650Z,100253.78
2022-10-25T06:59:08.463Z,100260.75
2022-10-25T07:02:11.354Z,100267.00
2022-10-25T07:05:13.955Z,100268.16
2022-10-25T07:08:17.771Z,100267.31
2022-10-25T07:11:21.675Z,100268.59
2022-10-25T07:14:24.156Z,100272.16
2022-10-25T07:17:26.618Z,100278.31
2022-10-25T07:20:29.058Z,100275.16
2022-10-25T07:23:33.438Z,100284.53
2022-10-25T07:26:36.655Z,100269.78
2022-10-25T07:29:39.104Z,100274.69
2022-10-25T07:32:42.548Z,100276.38
2022-10-25T07:35:58.697Z,100277.41
2022-10-25T07:39:09.737Z,100279.94
2022-10-25T07:42:12.188Z,100280.84
2022-10-25T07:45:16.227Z,100290.44
2022-10-25T07:48:22.748Z,100294.78
2022-10-25T07:51:25.197Z,100294.09
2022-10-25T07:54:28.945Z,100292.84
2022-10-25T07:57:31.395Z,100299.88
2022-10-25T08:00:35.334Z,100296.34
2022-10-25T08:03:38.242Z,100292.72
2022-10-25T08:06:40.735Z,100296.34
2022-10-25T08:09:44.512Z,100291.84
2022-10-25T08:12:47.594Z,100294.28
2022-10-25T08:15:51.463Z,100296.75
2022-10-25T08:18:53.928Z,100295.81
2022-10-25T08:21:56.500Z,100300.19
2022-10-25T08:25:00.532Z,100303.97
2022-10-25T08:28:02.996Z,100305.06
2022-10-25T08:31:05.573Z,100307.94
2022-10-25T08:34:08.326Z,100313.53
2022-10-25T08:37:11.796Z,100311.69
2022-10-25T08:40:20.783Z,100316.94
2022-10-25T08:43:35.111Z,100328.34
2022-10-25T08:46:41.285Z,100332.03
2022-10-25T08:49:52.876Z,100324.53
2022-10-25T08:52:59.870Z,100330.63
2022-10-25T08:56:19.727Z,100319.91
2022-10-25T08:59:29.278Z,100319.34
2022-10-25T09:02:40.374Z,100327.22
2022-10-25T09:05:48.737Z,100329.59
2022-10-25T09:09:04.150Z,100331.59
2022-10-25T09:12:18.039Z,100334.81
2022-10-25T09:15:40.374Z,100338.78
2022-10-25T09:18:49.900Z,100340.63
2022-10-25T09:21:58.265Z,100331.31
2022-10-25T09:25:03.902Z,100336.06
2022-10-25T09:28:15.119Z,100338.06
2022-10-25T09:31:21.569Z,100343.19
2022-10-25T09:34:25.408Z,100345.56
2022-10-25T09:37:31.336Z,100353.88
2022-10-25T09:40:47.208Z,100348.81
2022-10-25T09:43:55.684Z,100357.66
2022-10-25T09:47:02.967Z,100356.97
2022-10-25T09:50:11.765Z,100366.03
2022-10-25T09:53:18.826Z,100370.66
2022-10-25T09:56:24.333Z,100367.69
2022-10-25T09:59:28.819Z,100370.97
2022-10-25T10:02:31.559Z,100377.16
2022-10-25T10:05:34.861Z,100376.44
2022-10-25T10:08:37.630Z,100376.88
2022-10-25T10:11:40.796Z,100379.97
2022-10-25T10:14:51.172Z,100383.53
2022-10-25T10:18:22.795Z,100380.66
2022-10-25T10:21:25.407Z,100380.69
2022-10-25T10:24:30.497Z,100389.84
2022-10-25T10:27:34.567Z,100377.72
2022-10-25T10:30:39.883Z,100382.78
2022-10-25T10:33:47.692Z,100384.91
2022-10-25T10:37:02.753Z,100387.44
2022-10-25T10:40:25.000Z,100388.50
2022-10-25T10:43:31.775Z,100387.16
2022-10-25T10:46:35.651Z,100389.28
2022-10-25T10:49:41.830Z,100396.91
2022-10-25T10:52:46.821Z,100392.50
2022-10-25T10:55:51.838Z,100391.75
2022-10-25T10:58:54.311Z,100389.63
2022-10-25T11:01:58.803Z,100383.19
2022-10-25T11:05:01.482Z,100393.03
2022-10-25T11:08:18.320Z,100396.72
2022-10-25T11:11:22.550Z,100395.72
2022-10-25T11:14:25.116Z,100398.53
2022-10-25T11:17:34.148Z,100398.50
2022-10-25T11:20:50.040Z,100398.47
2022-10-25T11:24:04.528Z,100407.81
2022-10-25T11:27:18.306Z,100400.16
2022-10-25T11:30:22.908Z,100414.53
2022-10-25T11:33:35.795Z,100408.31
2022-10-25T11:37:06.442Z,100410.97
2022-10-25T11:40:16.358Z,100414.44
2022-10-25T11:43:36.008Z,100415.28
2022-10-25T11:46:52.459Z,100420.44
2022-10-25T11:50:09.642Z,100425.69
2022-10-25T11:53:25.843Z,100429.47
2022-10-25T11:56:36.135Z,100423.53
2022-10-25T11:59:51.565Z,100418.22
2022-10-25T12:03:10.407Z,100426.00
2022-10-25T12:06:23.362Z,100436.31
2022-10-25T12:09:37.128Z,100438.75
2022-10-25T12:12:45.197Z,100434.53
2022-10-25T12:15:50.077Z,100439.34
2022-10-25T12:19:01.651Z,100428.63
2022-10-25T12:22:09.589Z,100433.34
2022-10-25T12:25:19.429Z,100435.06
2022-10-25T12:28:29.237Z,100435.91
2022-10-25T12:31:37.631Z,100445.56
2022-10-25T12:34:44.039Z,100439.06
2022-10-25T12:37:55.099Z,100440.84
2022-10-25T12:41:06.435Z,100439.19
2022-10-25T12:44:25.698Z,100424.28
2022-10-25T12:47:41.313Z,100434.47
2022-10-25T12:51:04.648Z,100432.38
2022-10-25T12:54:40.307Z,100433.03
2022-10-25T12:57:54.554Z,100444.97
2022-10-25T13:01:21.717Z,100444.75
2022-10-25T13:04:39.615Z,100452.69
2022-10-25T13:07:42.258Z,100466.75
2022-10-25T13:10:50.413Z,100455.53
2022-10-25T13:13:54.629Z,100469.00
2022-10-25T13:17:36.545Z,100467.75
2022-10-25T13:20:47.304Z,100475.81
2022-10-25T13:23:59.739Z,100468.28
2022-10-25T13:27:20.278Z,100472.16
2022-10-25T13:30:31.967Z,100470.88
2022-10-25T13:33:35.020Z,100472.47
2022-10-25T13:36:48.758Z,100483.31
2022-10-25T13:39:54.166Z,100480.19
2022-10-25T13:43:07.124Z,100477.22
2022-10-25T13:46:12.591Z,100481.56
2022-10-25T13:49:29.625Z,100478.59
2022-10-25T13:52:34.835Z,100482.13
2022-10-25T13:55:40.818Z,100491.88
2022-10-25T13:58:48.251Z,100486.19
2022-10-25T14:01:57.030Z,100495.81
2022-10-25T14:04:59.584Z,100490.84
2022-10-25T14:08:17.558Z,100502.22
2022-10-25T14:11:24.486Z,100492.50
2022-10-25T14:14:32.353Z,100495.59
2022-10-25T14:17:40.798Z,100493.06
2022-10-25T14:20:48.131Z,100494.97
2022-10-25T14:23:51.150Z,100497.72
2022-10-25T14:26:56.438Z,100498.75
2022-10-25T14:30:31.051Z,100491.00
2022-10-25T14:33:39.272Z,100491.00
2022-10-25T14:36:49.578Z,100497.13
2022-10-25T14:39:53.868Z,100503.13
2022-10-25T14:42:56.787Z,100498.63
2022-10-25T14:46:02.916Z,100504.03
2022-10-25T14:49:10.177Z,100503.91
2022-10-25T14:52:12.700Z,100490.16
2022-10-25T14:55:20.007Z,100504.19
2022-10-25T14:58:24.047Z,100499.44
2022-10-25T15:01:28.342Z,100500.69
2022-10-25T15:04:33.771Z,100502.59
2022-10-25T15:07:40.861Z,100503.34
2022-10-25T15:10:45.504Z,100510.75
2022-10-25T15:13:49.376Z,100509.47
2022-10-25T15:17:02.519Z,100503.84
2022-10-25T15:20:25.153Z,100502.50
2022-10-25T15:23:27.694Z,100508.78
2022-10-25T15:26:34.690Z,100514.00
2022-10-25T15:32:56.915Z,100514.34
2022-10-25T15:36:02.035Z,100516.25
2022-10-25T15:39:18.927Z,100523.72
2022-10-25T15:42:22.920Z,100521.91
2022-10-25T15:45:25.485Z,100524.72
2022-10-25T15:48:29.464Z,100522.41
2022-10-25T15:51:33.972Z,100520.06
2022-10-25T15:54:36.442Z,100520.34
2022-10-25T15:57:38.913Z,100520.53
2022-10-25T16:00:41.554Z,100520.66
2022-10-25T16:03:45.366Z,100519.50
2022-10-25T16:06:48.106Z,100527.81
2022-10-25T16:09:50.617Z,100531.13
2022-10-25T16:12:59.441Z,100526.84
2022-10-25T16:16:11.794Z,100533.50
2022-10-25T16:19:27.636Z,100532.59
2022-10-25T16:22:30.112Z,100531.34
2022-10-25T16:25:33.307Z,100529.94
2022-10-25T16:28:35.859Z,100538.88
2022-10-25T16:31:38.332Z,100541.19
2022-10-25T16:34:45.951Z,100544.16
2022-10-25T16:37:48.741Z,100544.06
2022-10-25T16:40:51.409Z,100551.81
2022-10-25T16:43:53.891Z,100551.56
2022-10-25T16:46:56.390Z,100550.72
2022-10-25T16:50:00.181Z,100559.84
2022-10-25T16:53:04.958Z,100562.19
2022-10-25T16:56:09.092Z,100566.66
2022-10-25T16:59:11.561Z,100563.88
2022-10-25T17:02:18.420Z,100564.66
2022-10-25T17:05:24.793Z,100567.47
2022-10-25T17:08:27.272Z,100573.81
2022-10-25T17:11:29.742Z,100568.16
2022-10-25T17:14:32.257Z,100574.28
2022-10-25T17:17:34.736Z,100578.53
2022-10-25T17:20:38.948Z,100570.81
2022-10-25T17:23:41.725Z,100573.34
2022-10-25T17:26:44.389Z,100570.97
2022-10-25T17:29:46.853Z,100580.03
2022-10-25T17:32:49.362Z,100583.50
2022-10-25T17:35:53.367Z,100583.91
2022-10-25T17:38:55.991Z,100582.78
2022-10-25T17:41:58.481Z,100588.84
2022-10-25T17:45:00.927Z,100583.13
2022-10-25T17:48:04.108Z,100588.63
2022-10-25T17:51:10.310Z,100589.28
2022-10-25T17:54:12.792Z,100589.84
2022-10-25T17:57:15.475Z,100593.59
